Midway City, California
Current Conditions -  °F | °C
As of 9:58 AM on Saturday 20 Dec 2014 (Local Time) from KSLI Reporting Station
Overcast Overcast  
Wind Chill: 57°   Ceiling: 25000
Heat Index: 57°   Visibility: 7mi
Dew Point: 51°   Wind: 2mph
Humidity: 78%   Direction: 60°ENE
Pressure: 30.2"   Gusts: NA
Location:  33.74°N, 117.99°W
Report Text: KSLI 201758Z 06002KT 7SM FEW180 OVC250 14/10 A3020 RMK AO2A SLP230 T01400103 10140 20085 53008
Loading
Personal Weather Stations






























Interactive Weather Map New forecast layout! Learn more

10-Day Weather Forecast

Advertisements
Track Severe Weather on mobile